METAR AND TAF INFORMATION
METAR FOR SBPB
ADDS - METARS form results

(0636 UTC 06 June 2020)
Data provider http://aviationweather.gov/metar/data/
 
Forecast for: SBPB (PARNAIBA AIRPORT, BR)
Text: TAF SBPB 052100Z 0600/0612 08008KT 9999 SCT020 TN25/0608Z TX29/0612Z
Forecast period: 0000 to 1200 UTC 06 June 2020
Forecast type: FROM: standard forecast or significant change
Winds: from the E (80 degrees) at 9 MPH (8 knots; 4.1 m/s)
Visibility: 6 or more miles 10+ km)
Ceiling: at least 12,000 feet AGL
Clouds: scattered clouds at 2000 feet AGL
Weather: no significant weather forecast for this period
Text: BECMG 0600/0602 SCT015 RMK PDG
Forecast period: 0000 to 1200 UTC 06 June 2020
Forecast type: BECOMING: Conditions expected to become as follows by 0200 UTC 06 June 2020
Winds: from the E (80 degrees) at 9 MPH (8 knots; 4.1 m/s)
Visibility: 6 or more miles 10+ km)
Ceiling: at least 12,000 feet AGL
Clouds: scattered clouds at 1500 feet AGL
Weather: no significant weather forecast for this period

 AIRPORT MAP

 RUNWAY INFORMATION
Runway 9 Runway length 6890 ft Runway width 148 ft
Runway elevation 0 ft Runway displaced threshold 0 ft Runway heading 0
Runway 27 Runway length 6890 ft Runway width 148 ft
Runway elevation 0 ft Runway displaced threshold 0 ft Runway heading 0

 AIRPORT FREQUENCIES
Type AFIS Name RDO Frequency 126.6 MHZ

 AIRPORT NEAR NAVIGATION AIDS
Type NDB Name Parnaiba Frequency 365 KHZ



Powered by Virtual Airlines Manager [v2.6.2]